createdAt,value
2023-10-10T00:00:00.149Z,1023.8
2023-10-10T00:05:00.175Z,1023.9
2023-10-10T00:10:00.133Z,1023.9
2023-10-10T00:15:00.144Z,1023.9
2023-10-10T00:20:00.156Z,1023.9
2023-10-10T00:25:00.118Z,1024
2023-10-10T00:30:00.129Z,1023.9
2023-10-10T00:35:00.156Z,1024
2023-10-10T00:40:00.123Z,1024
2023-10-10T00:45:00.158Z,1023.9
2023-10-10T00:50:00.243Z,1023.9
2023-10-10T00:55:00.169Z,1023.9
2023-10-10T01:00:00.121Z,1023.8
2023-10-10T01:05:00.156Z,1023.8
2023-10-10T01:10:00.166Z,1023.9
2023-10-10T01:15:00.144Z,1023.9
2023-10-10T01:20:00.227Z,1023.9
2023-10-10T01:25:00.130Z,1023.7
2023-10-10T01:30:00.111Z,1023.7
2023-10-10T01:35:00.213Z,1023.7
2023-10-10T01:40:00.170Z,1023.7
2023-10-10T01:45:00.251Z,1023.7
2023-10-10T01:50:00.221Z,1023.8
2023-10-10T01:55:00.129Z,1023.8
2023-10-10T02:00:00.248Z,1023.8
2023-10-10T02:05:00.207Z,1023.8
2023-10-10T02:10:00.144Z,1023.8
2023-10-10T02:15:00.145Z,1023.7
2023-10-10T02:20:00.240Z,1023.8
2023-10-10T02:25:00.153Z,1023.8
2023-10-10T02:30:00.132Z,1023.7
2023-10-10T02:35:00.182Z,1023.8
2023-10-10T02:40:00.151Z,1023.9
2023-10-10T02:45:00.163Z,1023.7
2023-10-10T02:50:00.196Z,1023.7
2023-10-10T02:55:00.146Z,1023.7
2023-10-10T03:00:00.184Z,1023.9
2023-10-10T03:05:00.152Z,1023.8
2023-10-10T03:10:00.187Z,1023.9
2023-10-10T03:15:00.128Z,1023.8
2023-10-10T03:20:00.226Z,1023.8
2023-10-10T03:25:00.123Z,1023.7
2023-10-10T03:30:00.170Z,1023.8
2023-10-10T03:35:00.181Z,1023.8
2023-10-10T03:40:00.100Z,1023.8
2023-10-10T03:45:00.133Z,1023.9
2023-10-10T03:50:00.194Z,1023.8
2023-10-10T03:55:00.132Z,1023.8
2023-10-10T04:00:00.421Z,1023.8
2023-10-10T04:05:12.075Z,1023.8
2023-10-10T04:10:00.119Z,1023.8
2023-10-10T04:15:00.220Z,1023.8
2023-10-10T04:20:00.231Z,1023.9
2023-10-10T04:25:02.326Z,1023.9
2023-10-10T04:30:00.123Z,1023.9
2023-10-10T04:35:00.154Z,1023.9
2023-10-10T04:40:00.121Z,1024
2023-10-10T04:45:00.150Z,1023.9
2023-10-10T04:50:00.177Z,1023.8
2023-10-10T04:55:00.161Z,1024
2023-10-10T05:00:00.106Z,1024
2023-10-10T05:05:00.238Z,1023.9
2023-10-10T05:10:00.155Z,1023.9
2023-10-10T05:15:00.114Z,1024
2023-10-10T05:20:00.171Z,1024
2023-10-10T05:25:00.135Z,1024
2023-10-10T05:30:00.138Z,1024
2023-10-10T05:35:01.655Z,1023.9
2023-10-10T05:40:00.232Z,1023.9
2023-10-10T05:45:00.159Z,1023.9
2023-10-10T05:50:00.159Z,1023.8
2023-10-10T05:55:00.129Z,1023.9
2023-10-10T06:00:00.115Z,1023.9
2023-10-10T06:05:00.127Z,1023.9
2023-10-10T06:10:00.246Z,1023.9
2023-10-10T06:15:00.122Z,1024.1
2023-10-10T06:20:00.168Z,1024.1
2023-10-10T06:25:00.155Z,1024.1
2023-10-10T06:30:00.175Z,1024
2023-10-10T06:35:00.155Z,1024.1
2023-10-10T06:40:00.356Z,1024.2
2023-10-10T06:45:00.120Z,1024.2
2023-10-10T06:50:03.190Z,1024.3
2023-10-10T06:55:00.115Z,1024.3
2023-10-10T07:00:00.108Z,1024.4
2023-10-10T07:05:00.136Z,1024.5
2023-10-10T07:10:00.147Z,1024.4
2023-10-10T07:15:00.276Z,1024.4
2023-10-10T07:20:00.124Z,1024.4
2023-10-10T07:25:00.170Z,1024.4
2023-10-10T07:30:00.191Z,1024.4
2023-10-10T07:35:00.329Z,1024.4
2023-10-10T07:40:00.118Z,1024.6
2023-10-10T07:45:00.151Z,1024.5
2023-10-10T07:50:00.145Z,1024.6
2023-10-10T07:55:00.133Z,1024.7
2023-10-10T08:00:00.308Z,1024.6
2023-10-10T08:05:00.134Z,1024.6
2023-10-10T08:10:00.150Z,1024.5
2023-10-10T08:15:00.240Z,1024.5
2023-10-10T08:20:00.190Z,1024.5
2023-10-10T08:25:00.110Z,1024.6
2023-10-10T08:30:00.107Z,1024.5
2023-10-10T08:35:00.160Z,1024.4
2023-10-10T08:40:00.115Z,1024.5
2023-10-10T08:45:00.171Z,1024.5
2023-10-10T08:50:00.194Z,1024.5
2023-10-10T08:55:00.166Z,1024.4
2023-10-10T09:00:00.248Z,1024.4
2023-10-10T09:05:00.149Z,1024.3
2023-10-10T09:10:00.137Z,1024.4
2023-10-10T09:15:00.163Z,1024.4
2023-10-10T09:20:00.134Z,1024.4
2023-10-10T09:25:00.115Z,1024.4
2023-10-10T09:30:00.139Z,1024.3
2023-10-10T09:35:00.157Z,1024.4
2023-10-10T09:40:00.159Z,1024.4
2023-10-10T09:45:00.222Z,1024.2
2023-10-10T09:50:00.139Z,1024.3
2023-10-10T09:55:00.156Z,1024.2
2023-10-10T10:00:08.949Z,1024.2
2023-10-10T10:05:00.123Z,1021.3
2023-10-10T10:10:00.135Z,1024.2
2023-10-10T10:15:00.178Z,1024.1
2023-10-10T10:20:00.139Z,1024
2023-10-10T10:25:00.145Z,1024
2023-10-10T10:30:00.144Z,1024
2023-10-10T10:35:00.123Z,1024
2023-10-10T10:40:00.129Z,1024
2023-10-10T10:45:00.564Z,1024
2023-10-10T10:50:00.160Z,1023.9
2023-10-10T10:55:00.133Z,1023.8
2023-10-10T11:00:00.187Z,1023.7
2023-10-10T11:05:00.215Z,1023.7
2023-10-10T11:10:00.140Z,1023.6
2023-10-10T11:15:00.215Z,1023.6
2023-10-10T11:20:00.152Z,1023.5
2023-10-10T11:25:00.142Z,1023.4
2023-10-10T11:30:00.132Z,1023.4
2023-10-10T11:35:00.145Z,1023.3
2023-10-10T11:40:00.176Z,1023.3
2023-10-10T11:45:00.281Z,1023.2
2023-10-10T11:50:00.264Z,1023.2
2023-10-10T11:55:00.173Z,1023.2
2023-10-10T12:00:06.338Z,1023.2
2023-10-10T12:05:00.163Z,1023
2023-10-10T12:10:00.208Z,1022.9
2023-10-10T12:15:00.231Z,1022.8
2023-10-10T12:20:00.133Z,1022.9
2023-10-10T12:25:00.123Z,1022.8
2023-10-10T12:30:00.155Z,1022.9
2023-10-10T12:35:00.118Z,1022.8
2023-10-10T12:40:00.113Z,1022.6
2023-10-10T12:45:00.207Z,1022.6
2023-10-10T12:50:00.163Z,1022.5
2023-10-10T12:55:00.294Z,1022.4
2023-10-10T13:00:00.213Z,1022.3
2023-10-10T13:05:00.141Z,1022.4
2023-10-10T13:10:00.174Z,1022.3
2023-10-10T13:15:00.234Z,1022.2
2023-10-10T13:20:00.762Z,1022.2
2023-10-10T13:25:00.136Z,1022.1
2023-10-10T13:35:00.467Z,1022.1
2023-10-10T13:40:00.122Z,1022.1
2023-10-10T13:45:00.233Z,1022.1
2023-10-10T13:50:00.161Z,1022.1
2023-10-10T13:55:00.168Z,1021.9
2023-10-10T14:00:00.185Z,1021.9
2023-10-10T14:05:00.170Z,1021.9
2023-10-10T14:10:03.818Z,1021.9
2023-10-10T14:15:00.208Z,1021.9
2023-10-10T14:20:00.100Z,1021.9
2023-10-10T14:25:00.133Z,1021.8
2023-10-10T14:30:00.183Z,1021.9
2023-10-10T14:35:00.177Z,1021.7
2023-10-10T14:40:00.168Z,1021.7
2023-10-10T14:45:00.217Z,1021.7
2023-10-10T14:50:00.123Z,1021.6
2023-10-10T14:55:00.130Z,1021.6
2023-10-10T15:00:00.237Z,1021.5
2023-10-10T15:05:00.158Z,1021.5
2023-10-10T15:10:00.141Z,1021.6
2023-10-10T15:15:00.166Z,1021.6
2023-10-10T15:20:00.129Z,1021.6
2023-10-10T15:25:00.155Z,1021.5
2023-10-10T15:30:00.234Z,1021.5
2023-10-10T15:35:00.143Z,1021.6
2023-10-10T15:40:00.132Z,1021.5
2023-10-10T15:45:00.215Z,1021.6
2023-10-10T15:50:00.147Z,1021.6
2023-10-10T15:55:00.152Z,1021.6
2023-10-10T16:00:00.176Z,1021.6
2023-10-10T16:05:00.123Z,1021.6
2023-10-10T16:10:00.125Z,1021.6
2023-10-10T16:15:00.280Z,1021.6
2023-10-10T16:20:00.155Z,1021.8
2023-10-10T16:25:00.137Z,1021.7
2023-10-10T16:30:00.182Z,1021.8
2023-10-10T16:35:00.119Z,1021.8
2023-10-10T16:40:00.155Z,1021.8
2023-10-10T16:45:00.211Z,1021.8
2023-10-10T16:50:00.152Z,1021.8
2023-10-10T16:55:00.125Z,1021.7
2023-10-10T17:00:00.177Z,1021.8
2023-10-10T17:05:00.153Z,1021.8
2023-10-10T17:10:00.217Z,1021.8
2023-10-10T17:15:00.155Z,1021.8
2023-10-10T17:20:00.121Z,1021.9
2023-10-10T17:25:00.115Z,1021.9
2023-10-10T17:30:00.252Z,1022
2023-10-10T17:35:00.157Z,1022
2023-10-10T17:40:00.184Z,1022
2023-10-10T17:45:00.276Z,1022
2023-10-10T17:50:00.273Z,1022
2023-10-10T17:55:00.125Z,1022
2023-10-10T18:00:00.211Z,1022.1
2023-10-10T18:05:00.363Z,1022.1
2023-10-10T18:10:00.119Z,1022.1
2023-10-10T18:15:00.158Z,1022.1
2023-10-10T18:20:00.121Z,1022.1
2023-10-10T18:25:00.127Z,1022.2
2023-10-10T18:30:00.217Z,1022.2
2023-10-10T18:35:00.144Z,1022.1
2023-10-10T18:40:00.147Z,1022.1
2023-10-10T18:45:05.154Z,1022.2
2023-10-10T18:50:00.146Z,1022.2
2023-10-10T18:55:00.135Z,1022.2
2023-10-10T19:00:00.188Z,1022.2
2023-10-10T19:05:00.158Z,1022.1
2023-10-10T19:10:00.138Z,1022.1
2023-10-10T19:15:00.244Z,1022.1
2023-10-10T19:20:00.196Z,1022.1
2023-10-10T19:25:00.169Z,1022.1
2023-10-10T19:30:00.315Z,1022
2023-10-10T19:35:00.156Z,1022
2023-10-10T19:40:02.525Z,1022
2023-10-10T19:45:11.138Z,1022
2023-10-10T19:50:00.138Z,1022
2023-10-10T19:55:12.868Z,1022.1
2023-10-10T20:00:00.239Z,1022
2023-10-10T20:05:00.132Z,1021.9
2023-10-10T20:10:00.133Z,1021.9
2023-10-10T20:15:00.209Z,1021.9
2023-10-10T20:20:00.146Z,1021.9
2023-10-10T20:25:00.168Z,1021.8
2023-10-10T20:30:00.263Z,1021.9
2023-10-10T20:35:00.131Z,1021.8
2023-10-10T20:40:00.132Z,1021.9
2023-10-10T20:45:00.207Z,1021.8
2023-10-10T20:50:00.132Z,1021.8
2023-10-10T20:55:00.133Z,1021.8
2023-10-10T21:00:00.185Z,1021.7
2023-10-10T21:05:00.190Z,1021.7
2023-10-10T21:10:00.196Z,1021.7
2023-10-10T21:15:00.157Z,1021.7
2023-10-10T21:20:00.148Z,1021.7
2023-10-10T21:25:00.115Z,1021.8
2023-10-10T21:30:00.232Z,1021.8
2023-10-10T21:35:00.124Z,1021.8
2023-10-10T21:40:00.151Z,1021.7
2023-10-10T21:45:00.170Z,1021.7
2023-10-10T21:50:00.129Z,1021.7
2023-10-10T21:55:00.117Z,1021.7
2023-10-10T22:00:00.198Z,1021.7
2023-10-10T22:05:00.164Z,1021.7
2023-10-10T22:10:00.122Z,1021.7
2023-10-10T22:15:00.228Z,1021.7
2023-10-10T22:20:00.141Z,1021.7
2023-10-10T22:25:00.144Z,1021.6
2023-10-10T22:30:00.223Z,1021.7
2023-10-10T22:35:00.151Z,1021.7
2023-10-10T22:40:00.167Z,1021.7
2023-10-10T22:45:00.164Z,1021.6
2023-10-10T22:50:00.245Z,1021.6
2023-10-10T22:55:00.133Z,1021.6
2023-10-10T23:00:00.255Z,1021.7
2023-10-10T23:05:00.124Z,1021.5
2023-10-10T23:10:00.170Z,1021.5
2023-10-10T23:15:00.146Z,1021.4
2023-10-10T23:20:00.168Z,1021.4
2023-10-10T23:25:00.150Z,1021.3
2023-10-10T23:30:00.229Z,1021.4
2023-10-10T23:35:00.123Z,1021.3
2023-10-10T23:40:00.113Z,1021.4
2023-10-10T23:45:00.294Z,1021.5
2023-10-10T23:50:00.178Z,1021.3
2023-10-10T23:55:00.172Z,1021.4
